sensor_id;sensor_type;location;lat;lon;timestamp;temperature;humidity
21682;DHT22;11002;48.256;10.084;2022-09-17T00:01:15;19.30;47.60
21682;DHT22;11002;48.256;10.084;2022-09-17T00:03:43;19.40;47.70
21682;DHT22;11002;48.256;10.084;2022-09-17T00:06:11;19.30;47.60
21682;DHT22;11002;48.256;10.084;2022-09-17T00:08:40;19.30;47.60
21682;DHT22;11002;48.256;10.084;2022-09-17T00:11:10;19.30;47.60
21682;DHT22;11002;48.256;10.084;2022-09-17T00:13:39;19.30;47.60
21682;DHT22;11002;48.256;10.084;2022-09-17T00:16:06;19.30;47.60
21682;DHT22;11002;48.256;10.084;2022-09-17T00:18:34;19.30;47.60
21682;DHT22;11002;48.256;10.084;2022-09-17T00:21:05;19.30;47.60
21682;DHT22;11002;48.256;10.084;2022-09-17T00:23:33;19.30;47.60
21682;DHT22;11002;48.256;10.084;2022-09-17T00:26:04;19.30;47.60
21682;DHT22;11002;48.256;10.084;2022-09-17T00:28:34;19.30;47.60
21682;DHT22;11002;48.256;10.084;2022-09-17T00:31:05;19.30;47.60
21682;DHT22;11002;48.256;10.084;2022-09-17T00:33:33;19.30;47.60
21682;DHT22;11002;48.256;10.084;2022-09-17T00:36:02;19.30;47.60
21682;DHT22;11002;48.256;10.084;2022-09-17T00:38:30;19.30;47.60
21682;DHT22;11002;48.256;10.084;2022-09-17T00:40:57;19.30;47.60
21682;DHT22;11002;48.256;10.084;2022-09-17T00:43:38;19.30;47.60
21682;DHT22;11002;48.256;10.084;2022-09-17T00:46:12;19.30;47.60
21682;DHT22;11002;48.256;10.084;2022-09-17T00:48:43;19.30;47.60
21682;DHT22;11002;48.256;10.084;2022-09-17T00:51:13;19.30;47.60
21682;DHT22;11002;48.256;10.084;2022-09-17T00:53:41;19.30;47.60
21682;DHT22;11002;48.256;10.084;2022-09-17T00:56:15;19.30;47.60
21682;DHT22;11002;48.256;10.084;2022-09-17T00:58:46;19.30;47.60
21682;DHT22;11002;48.256;10.084;2022-09-17T01:01:13;19.30;47.60
21682;DHT22;11002;48.256;10.084;2022-09-17T01:03:41;19.30;47.60
21682;DHT22;11002;48.256;10.084;2022-09-17T01:06:15;19.30;47.60
21682;DHT22;11002;48.256;10.084;2022-09-17T01:08:58;19.30;47.60
21682;DHT22;11002;48.256;10.084;2022-09-17T01:11:45;19.30;47.60
21682;DHT22;11002;48.256;10.084;2022-09-17T01:14:20;19.30;47.60
21682;DHT22;11002;48.256;10.084;2022-09-17T01:16:56;19.30;47.60
21682;DHT22;11002;48.256;10.084;2022-09-17T01:20:11;19.30;47.50
21682;DHT22;11002;48.256;10.084;2022-09-17T01:22:54;19.30;47.60
21682;DHT22;11002;48.256;10.084;2022-09-17T01:25:26;19.30;47.60
21682;DHT22;11002;48.256;10.084;2022-09-17T01:31:18;19.30;47.60
21682;DHT22;11002;48.256;10.084;2022-09-17T01:33:54;19.30;47.60
21682;DHT22;11002;48.256;10.084;2022-09-17T01:36:37;19.30;47.60
21682;DHT22;11002;48.256;10.084;2022-09-17T01:39:13;19.30;47.60
21682;DHT22;11002;48.256;10.084;2022-09-17T01:41:50;19.30;47.60
21682;DHT22;11002;48.256;10.084;2022-09-17T01:44:30;19.30;47.60
21682;DHT22;11002;48.256;10.084;2022-09-17T01:47:04;19.30;47.60
21682;DHT22;11002;48.256;10.084;2022-09-17T01:49:36;19.30;47.60
21682;DHT22;11002;48.256;10.084;2022-09-17T01:52:06;19.30;47.60
21682;DHT22;11002;48.256;10.084;2022-09-17T01:54:38;19.30;47.60
21682;DHT22;11002;48.256;10.084;2022-09-17T01:57:10;19.30;47.60
21682;DHT22;11002;48.256;10.084;2022-09-17T01:59:42;19.30;47.60
21682;DHT22;11002;48.256;10.084;2022-09-17T02:02:14;19.30;47.60
21682;DHT22;11002;48.256;10.084;2022-09-17T02:04:48;19.30;47.60
21682;DHT22;11002;48.256;10.084;2022-09-17T02:07:18;19.30;47.60
21682;DHT22;11002;48.256;10.084;2022-09-17T02:09:51;19.30;47.60
21682;DHT22;11002;48.256;10.084;2022-09-17T02:12:22;19.30;47.50
21682;DHT22;11002;48.256;10.084;2022-09-17T02:14:53;19.30;47.50
21682;DHT22;11002;48.256;10.084;2022-09-17T02:17:26;19.30;47.50
21682;DHT22;11002;48.256;10.084;2022-09-17T02:19:55;19.30;47.30
21682;DHT22;11002;48.256;10.084;2022-09-17T02:22:27;19.30;47.40
21682;DHT22;11002;48.256;10.084;2022-09-17T02:25:02;19.30;47.40
21682;DHT22;11002;48.256;10.084;2022-09-17T02:27:38;19.30;47.30
21682;DHT22;11002;48.256;10.084;2022-09-17T02:30:10;19.30;47.20
21682;DHT22;11002;48.256;10.084;2022-09-17T02:32:39;19.30;47.20
21682;DHT22;11002;48.256;10.084;2022-09-17T02:35:08;19.30;47.20
21682;DHT22;11002;48.256;10.084;2022-09-17T02:37:35;19.30;47.10
21682;DHT22;11002;48.256;10.084;2022-09-17T02:40:03;19.30;47.10
21682;DHT22;11002;48.256;10.084;2022-09-17T02:42:48;19.30;47.00
21682;DHT22;11002;48.256;10.084;2022-09-17T02:45:26;19.30;47.10
21682;DHT22;11002;48.256;10.084;2022-09-17T02:48:07;19.30;47.00
21682;DHT22;11002;48.256;10.084;2022-09-17T02:50:51;19.30;47.10
21682;DHT22;11002;48.256;10.084;2022-09-17T02:53:33;19.30;47.00
21682;DHT22;11002;48.256;10.084;2022-09-17T02:56:09;19.30;47.00
21682;DHT22;11002;48.256;10.084;2022-09-17T02:58:45;19.30;47.00
21682;DHT22;11002;48.256;10.084;2022-09-17T03:01:19;19.30;47.10
21682;DHT22;11002;48.256;10.084;2022-09-17T03:03:51;19.30;47.10
21682;DHT22;11002;48.256;10.084;2022-09-17T03:06:20;19.30;46.90
21682;DHT22;11002;48.256;10.084;2022-09-17T03:08:48;19.30;46.90
21682;DHT22;11002;48.256;10.084;2022-09-17T03:11:16;19.30;47.00
21682;DHT22;11002;48.256;10.084;2022-09-17T03:13:43;19.30;47.00
21682;DHT22;11002;48.256;10.084;2022-09-17T03:16:11;19.30;46.90
21682;DHT22;11002;48.256;10.084;2022-09-17T03:18:38;19.30;47.00
21682;DHT22;11002;48.256;10.084;2022-09-17T03:21:07;19.30;47.10
21682;DHT22;11002;48.256;10.084;2022-09-17T03:23:34;19.30;47.00
21682;DHT22;11002;48.256;10.084;2022-09-17T03:26:01;19.20;46.90
21682;DHT22;11002;48.256;10.084;2022-09-17T03:28:29;19.20;46.80
21682;DHT22;11002;48.256;10.084;2022-09-17T03:30:56;19.20;46.80
21682;DHT22;11002;48.256;10.084;2022-09-17T03:33:24;19.20;46.80
21682;DHT22;11002;48.256;10.084;2022-09-17T03:35:51;19.20;46.70
21682;DHT22;11002;48.256;10.084;2022-09-17T03:38:20;19.20;46.70
21682;DHT22;11002;48.256;10.084;2022-09-17T03:40:56;19.20;46.70
21682;DHT22;11002;48.256;10.084;2022-09-17T03:43:24;19.20;46.60
21682;DHT22;11002;48.256;10.084;2022-09-17T03:45:51;19.20;46.70
21682;DHT22;11002;48.256;10.084;2022-09-17T03:48:18;19.20;46.70
21682;DHT22;11002;48.256;10.084;2022-09-17T03:50:46;19.20;46.70
21682;DHT22;11002;48.256;10.084;2022-09-17T03:53:13;19.20;46.70
21682;DHT22;11002;48.256;10.084;2022-09-17T03:55:42;19.30;46.80
21682;DHT22;11002;48.256;10.084;2022-09-17T03:58:09;19.30;46.80
21682;DHT22;11002;48.256;10.084;2022-09-17T04:00:37;19.30;46.80
21682;DHT22;11002;48.256;10.084;2022-09-17T04:03:05;19.30;46.80
21682;DHT22;11002;48.256;10.084;2022-09-17T04:05:32;19.30;46.80
21682;DHT22;11002;48.256;10.084;2022-09-17T04:08:00;19.30;46.80
21682;DHT22;11002;48.256;10.084;2022-09-17T04:10:27;19.30;46.80
21682;DHT22;11002;48.256;10.084;2022-09-17T04:12:56;19.30;46.70
21682;DHT22;11002;48.256;10.084;2022-09-17T04:15:24;19.30;46.70
21682;DHT22;11002;48.256;10.084;2022-09-17T04:17:54;19.30;46.80
21682;DHT22;11002;48.256;10.084;2022-09-17T04:20:24;19.30;46.70
21682;DHT22;11002;48.256;10.084;2022-09-17T04:22:51;19.30;46.70
21682;DHT22;11002;48.256;10.084;2022-09-17T04:25:18;19.30;46.60
21682;DHT22;11002;48.256;10.084;2022-09-17T04:27:46;19.30;46.60
21682;DHT22;11002;48.256;10.084;2022-09-17T04:30:15;19.30;46.60
21682;DHT22;11002;48.256;10.084;2022-09-17T04:32:43;19.30;46.60
21682;DHT22;11002;48.256;10.084;2022-09-17T04:35:11;19.30;46.60
21682;DHT22;11002;48.256;10.084;2022-09-17T04:37:39;19.30;46.60
21682;DHT22;11002;48.256;10.084;2022-09-17T04:40:07;19.30;46.60
21682;DHT22;11002;48.256;10.084;2022-09-17T04:42:34;19.30;46.50
21682;DHT22;11002;48.256;10.084;2022-09-17T04:45:02;19.20;46.50
21682;DHT22;11002;48.256;10.084;2022-09-17T04:47:31;19.30;46.60
21682;DHT22;11002;48.256;10.084;2022-09-17T04:49:58;19.30;46.60
21682;DHT22;11002;48.256;10.084;2022-09-17T04:52:25;19.30;46.60
21682;DHT22;11002;48.256;10.084;2022-09-17T04:54:52;19.30;46.50
21682;DHT22;11002;48.256;10.084;2022-09-17T04:57:20;19.30;46.50
21682;DHT22;11002;48.256;10.084;2022-09-17T04:59:48;19.30;46.60
21682;DHT22;11002;48.256;10.084;2022-09-17T05:02:15;19.30;46.50
21682;DHT22;11002;48.256;10.084;2022-09-17T05:04:44;19.30;46.50
21682;DHT22;11002;48.256;10.084;2022-09-17T05:07:11;19.30;46.50
21682;DHT22;11002;48.256;10.084;2022-09-17T05:09:38;19.30;46.50
21682;DHT22;11002;48.256;10.084;2022-09-17T05:12:06;19.30;46.50
21682;DHT22;11002;48.256;10.084;2022-09-17T05:14:34;19.30;46.40
21682;DHT22;11002;48.256;10.084;2022-09-17T05:17:01;19.30;46.40
21682;DHT22;11002;48.256;10.084;2022-09-17T05:19:28;19.20;46.20
21682;DHT22;11002;48.256;10.084;2022-09-17T05:21:57;19.20;46.30
21682;DHT22;11002;48.256;10.084;2022-09-17T05:24:25;19.30;46.40
21682;DHT22;11002;48.256;10.084;2022-09-17T05:26:52;19.30;46.40
21682;DHT22;11002;48.256;10.084;2022-09-17T05:29:20;19.30;46.40
21682;DHT22;11002;48.256;10.084;2022-09-17T05:31:47;19.30;46.40
21682;DHT22;11002;48.256;10.084;2022-09-17T05:34:14;19.30;46.40
21682;DHT22;11002;48.256;10.084;2022-09-17T05:36:42;19.20;46.30
21682;DHT22;11002;48.256;10.084;2022-09-17T05:39:10;19.30;46.40
21682;DHT22;11002;48.256;10.084;2022-09-17T05:41:38;19.20;46.20
21682;DHT22;11002;48.256;10.084;2022-09-17T05:44:05;19.30;46.40
21682;DHT22;11002;48.256;10.084;2022-09-17T05:46:32;19.20;46.30
21682;DHT22;11002;48.256;10.084;2022-09-17T05:49:00;19.20;47.00
21682;DHT22;11002;48.256;10.084;2022-09-17T05:51:28;19.30;46.40
21682;DHT22;11002;48.256;10.084;2022-09-17T05:53:56;19.30;46.30
21682;DHT22;11002;48.256;10.084;2022-09-17T05:56:25;19.30;46.40
21682;DHT22;11002;48.256;10.084;2022-09-17T05:58:54;19.20;46.30
21682;DHT22;11002;48.256;10.084;2022-09-17T06:01:22;19.20;46.20
21682;DHT22;11002;48.256;10.084;2022-09-17T06:03:49;19.20;46.20
21682;DHT22;11002;48.256;10.084;2022-09-17T06:06:16;19.20;46.20
21682;DHT22;11002;48.256;10.084;2022-09-17T06:08:44;19.20;46.20
21682;DHT22;11002;48.256;10.084;2022-09-17T06:11:11;19.20;46.30
21682;DHT22;11002;48.256;10.084;2022-09-17T06:13:40;19.30;46.30
21682;DHT22;11002;48.256;10.084;2022-09-17T06:16:08;19.20;46.20
21682;DHT22;11002;48.256;10.084;2022-09-17T06:18:36;19.20;46.20
21682;DHT22;11002;48.256;10.084;2022-09-17T06:21:03;19.30;46.30
21682;DHT22;11002;48.256;10.084;2022-09-17T06:23:32;19.20;46.20
21682;DHT22;11002;48.256;10.084;2022-09-17T06:26:00;19.20;46.20
21682;DHT22;11002;48.256;10.084;2022-09-17T06:28:28;19.30;46.30
21682;DHT22;11002;48.256;10.084;2022-09-17T06:31:00;19.30;46.30
21682;DHT22;11002;48.256;10.084;2022-09-17T06:33:29;19.20;46.20
21682;DHT22;11002;48.256;10.084;2022-09-17T06:35:57;19.20;46.20
21682;DHT22;11002;48.256;10.084;2022-09-17T06:38:25;19.20;46.20
21682;DHT22;11002;48.256;10.084;2022-09-17T06:40:53;19.20;46.20
21682;DHT22;11002;48.256;10.084;2022-09-17T06:43:21;19.30;46.30
21682;DHT22;11002;48.256;10.084;2022-09-17T06:45:51;19.20;46.10
21682;DHT22;11002;48.256;10.084;2022-09-17T06:48:21;19.20;46.20
21682;DHT22;11002;48.256;10.084;2022-09-17T06:50:49;19.20;46.20
21682;DHT22;11002;48.256;10.084;2022-09-17T06:53:16;19.20;46.20
21682;DHT22;11002;48.256;10.084;2022-09-17T06:55:44;19.20;45.50
21682;DHT22;11002;48.256;10.084;2022-09-17T06:58:12;19.20;43.90
21682;DHT22;11002;48.256;10.084;2022-09-17T07:00:39;19.10;42.40
21682;DHT22;11002;48.256;10.084;2022-09-17T07:03:08;19.00;40.80
21682;DHT22;11002;48.256;10.084;2022-09-17T07:05:37;19.00;40.10
21682;DHT22;11002;48.256;10.084;2022-09-17T07:08:04;18.90;39.50
21682;DHT22;11002;48.256;10.084;2022-09-17T07:10:31;18.90;39.70
21682;DHT22;11002;48.256;10.084;2022-09-17T07:12:59;18.90;39.90
21682;DHT22;11002;48.256;10.084;2022-09-17T07:15:26;18.90;39.80
21682;DHT22;11002;48.256;10.084;2022-09-17T07:17:53;18.90;39.60
21682;DHT22;11002;48.256;10.084;2022-09-17T07:20:21;18.80;39.50
21682;DHT22;11002;48.256;10.084;2022-09-17T07:22:56;18.80;39.20
21682;DHT22;11002;48.256;10.084;2022-09-17T07:25:23;18.80;39.10
21682;DHT22;11002;48.256;10.084;2022-09-17T07:27:51;18.80;39.00
21682;DHT22;11002;48.256;10.084;2022-09-17T07:30:19;18.80;39.00
21682;DHT22;11002;48.256;10.084;2022-09-17T07:32:46;18.80;39.00
21682;DHT22;11002;48.256;10.084;2022-09-17T07:35:14;18.80;38.80
21682;DHT22;11002;48.256;10.084;2022-09-17T07:37:42;18.70;38.40
21682;DHT22;11002;48.256;10.084;2022-09-17T07:40:11;18.80;38.40
21682;DHT22;11002;48.256;10.084;2022-09-17T07:42:38;18.70;38.20
21682;DHT22;11002;48.256;10.084;2022-09-17T07:45:06;18.70;38.20
21682;DHT22;11002;48.256;10.084;2022-09-17T07:47:38;18.70;38.00
21682;DHT22;11002;48.256;10.084;2022-09-17T07:50:07;18.70;37.90
21682;DHT22;11002;48.256;10.084;2022-09-17T07:52:35;18.70;37.70
21682;DHT22;11002;48.256;10.084;2022-09-17T07:55:02;18.60;37.70
21682;DHT22;11002;48.256;10.084;2022-09-17T07:57:31;18.60;37.50
21682;DHT22;11002;48.256;10.084;2022-09-17T07:59:58;18.60;37.70
21682;DHT22;11002;48.256;10.084;2022-09-17T08:02:25;18.60;37.40
21682;DHT22;11002;48.256;10.084;2022-09-17T08:04:53;18.70;37.20
21682;DHT22;11002;48.256;10.084;2022-09-17T08:07:22;18.60;36.70
21682;DHT22;11002;48.256;10.084;2022-09-17T08:09:50;18.60;36.10
21682;DHT22;11002;48.256;10.084;2022-09-17T08:12:17;18.60;35.70
21682;DHT22;11002;48.256;10.084;2022-09-17T08:14:46;18.60;35.60
21682;DHT22;11002;48.256;10.084;2022-09-17T08:17:13;18.60;36.20
21682;DHT22;11002;48.256;10.084;2022-09-17T08:19:40;18.50;34.80
21682;DHT22;11002;48.256;10.084;2022-09-17T08:22:08;18.50;34.50
21682;DHT22;11002;48.256;10.084;2022-09-17T08:24:35;18.50;33.80
21682;DHT22;11002;48.256;10.084;2022-09-17T08:27:03;18.50;34.90
21682;DHT22;11002;48.256;10.084;2022-09-17T08:29:30;18.50;36.10
21682;DHT22;11002;48.256;10.084;2022-09-17T08:31:59;18.50;37.00
21682;DHT22;11002;48.256;10.084;2022-09-17T08:34:26;18.60;37.80
21682;DHT22;11002;48.256;10.084;2022-09-17T08:36:53;18.60;38.00
21682;DHT22;11002;48.256;10.084;2022-09-17T08:39:21;18.60;38.00
21682;DHT22;11002;48.256;10.084;2022-09-17T08:41:54;18.60;37.90
21682;DHT22;11002;48.256;10.084;2022-09-17T08:44:26;18.60;37.90
21682;DHT22;11002;48.256;10.084;2022-09-17T08:47:00;18.70;38.00
21682;DHT22;11002;48.256;10.084;2022-09-17T08:49:34;18.70;38.00
21682;DHT22;11002;48.256;10.084;2022-09-17T08:55:23;18.70;38.20
21682;DHT22;11002;48.256;10.084;2022-09-17T08:58:04;18.80;38.30
21682;DHT22;11002;48.256;10.084;2022-09-17T09:00:40;18.80;38.70
21682;DHT22;11002;48.256;10.084;2022-09-17T09:03:19;18.80;38.40
21682;DHT22;11002;48.256;10.084;2022-09-17T09:05:49;18.80;38.40
21682;DHT22;11002;48.256;10.084;2022-09-17T09:08:24;18.80;38.50
21682;DHT22;11002;48.256;10.084;2022-09-17T09:10:55;18.80;38.60
21682;DHT22;11002;48.256;10.084;2022-09-17T09:13:27;18.80;38.70
21682;DHT22;11002;48.256;10.084;2022-09-17T09:15:58;18.80;38.80
21682;DHT22;11002;48.256;10.084;2022-09-17T09:18:29;18.80;38.80
21682;DHT22;11002;48.256;10.084;2022-09-17T09:21:09;18.90;39.10
21682;DHT22;11002;48.256;10.084;2022-09-17T09:23:46;18.90;39.20
21682;DHT22;11002;48.256;10.084;2022-09-17T09:26:18;18.90;39.40
21682;DHT22;11002;48.256;10.084;2022-09-17T09:29:09;18.90;39.50
21682;DHT22;11002;48.256;10.084;2022-09-17T09:31:59;18.90;40.30
21682;DHT22;11002;48.256;10.084;2022-09-17T09:34:32;18.90;39.60
21682;DHT22;11002;48.256;10.084;2022-09-17T09:37:09;18.90;39.70
21682;DHT22;11002;48.256;10.084;2022-09-17T09:39:38;18.90;39.90
21682;DHT22;11002;48.256;10.084;2022-09-17T09:42:12;18.90;39.90
21682;DHT22;11002;48.256;10.084;2022-09-17T09:44:41;18.90;40.00
21682;DHT22;11002;48.256;10.084;2022-09-17T09:47:19;18.90;40.10
21682;DHT22;11002;48.256;10.084;2022-09-17T09:50:05;18.90;40.10
21682;DHT22;11002;48.256;10.084;2022-09-17T09:52:45;18.90;40.20
21682;DHT22;11002;48.256;10.084;2022-09-17T09:55:28;18.90;40.30
21682;DHT22;11002;48.256;10.084;2022-09-17T09:58:04;18.90;40.60
21682;DHT22;11002;48.256;10.084;2022-09-17T10:00:39;18.90;40.60
21682;DHT22;11002;48.256;10.084;2022-09-17T10:03:12;18.90;41.40
21682;DHT22;11002;48.256;10.084;2022-09-17T10:05:55;18.90;40.70
21682;DHT22;11002;48.256;10.084;2022-09-17T10:08:24;18.90;40.70
21682;DHT22;11002;48.256;10.084;2022-09-17T10:11:00;18.90;40.70
21682;DHT22;11002;48.256;10.084;2022-09-17T10:13:29;19.00;40.80
21682;DHT22;11002;48.256;10.084;2022-09-17T10:16:15;19.00;40.90
21682;DHT22;11002;48.256;10.084;2022-09-17T10:18:43;19.00;40.80
21682;DHT22;11002;48.256;10.084;2022-09-17T10:21:19;19.00;40.90
21682;DHT22;11002;48.256;10.084;2022-09-17T10:23:47;19.00;40.80
21682;DHT22;11002;48.256;10.084;2022-09-17T10:26:21;19.00;40.80
21682;DHT22;11002;48.256;10.084;2022-09-17T10:28:52;19.00;40.90
21682;DHT22;11002;48.256;10.084;2022-09-17T10:31:20;19.00;40.90
21682;DHT22;11002;48.256;10.084;2022-09-17T10:33:55;19.00;40.80
21682;DHT22;11002;48.256;10.084;2022-09-17T10:36:39;19.00;40.80
21682;DHT22;11002;48.256;10.084;2022-09-17T10:39:32;19.00;40.80
21682;DHT22;11002;48.256;10.084;2022-09-17T10:42:01;19.00;40.80
21682;DHT22;11002;48.256;10.084;2022-09-17T10:44:32;19.00;40.80
21682;DHT22;11002;48.256;10.084;2022-09-17T10:47:12;19.00;40.90
21682;DHT22;11002;48.256;10.084;2022-09-17T10:49:41;19.00;40.90
21682;DHT22;11002;48.256;10.084;2022-09-17T10:52:17;19.00;40.90
21682;DHT22;11002;48.256;10.084;2022-09-17T10:55:16;19.00;40.80
21682;DHT22;11002;48.256;10.084;2022-09-17T10:58:03;19.00;40.90
21682;DHT22;11002;48.256;10.084;2022-09-17T11:00:43;19.00;40.90
21682;DHT22;11002;48.256;10.084;2022-09-17T11:03:29;19.00;40.80
21682;DHT22;11002;48.256;10.084;2022-09-17T11:09:04;19.00;40.80
21682;DHT22;11002;48.256;10.084;2022-09-17T11:11:41;19.00;40.80
21682;DHT22;11002;48.256;10.084;2022-09-17T11:14:24;19.00;40.80
21682;DHT22;11002;48.256;10.084;2022-09-17T11:17:05;19.00;40.90
21682;DHT22;11002;48.256;10.084;2022-09-17T11:19:40;19.00;40.80
21682;DHT22;11002;48.256;10.084;2022-09-17T11:22:17;19.00;40.90
21682;DHT22;11002;48.256;10.084;2022-09-17T11:25:22;19.00;40.90
21682;DHT22;11002;48.256;10.084;2022-09-17T11:28:03;19.00;40.90
21682;DHT22;11002;48.256;10.084;2022-09-17T11:30:42;19.00;40.90
21682;DHT22;11002;48.256;10.084;2022-09-17T11:33:41;19.00;41.00
21682;DHT22;11002;48.256;10.084;2022-09-17T11:36:13;19.00;41.10
21682;DHT22;11002;48.256;10.084;2022-09-17T11:38:47;19.00;41.20
21682;DHT22;11002;48.256;10.084;2022-09-17T11:41:19;19.00;41.50
21682;DHT22;11002;48.256;10.084;2022-09-17T11:44:01;19.00;41.50
21682;DHT22;11002;48.256;10.084;2022-09-17T11:46:33;19.00;41.50
21682;DHT22;11002;48.256;10.084;2022-09-17T11:49:02;19.00;41.50
21682;DHT22;11002;48.256;10.084;2022-09-17T11:51:35;19.00;41.60
21682;DHT22;11002;48.256;10.084;2022-09-17T11:54:06;19.00;41.50
21682;DHT22;11002;48.256;10.084;2022-09-17T11:56:40;19.00;41.50
21682;DHT22;11002;48.256;10.084;2022-09-17T11:59:11;19.00;41.50
21682;DHT22;11002;48.256;10.084;2022-09-17T12:01:43;19.00;41.50
21682;DHT22;11002;48.256;10.084;2022-09-17T12:04:26;19.00;41.50
21682;DHT22;11002;48.256;10.084;2022-09-17T12:06:59;19.00;41.50
21682;DHT22;11002;48.256;10.084;2022-09-17T12:09:31;19.00;41.50
21682;DHT22;11002;48.256;10.084;2022-09-17T12:12:06;19.00;41.50
21682;DHT22;11002;48.256;10.084;2022-09-17T12:14:43;19.00;41.60
21682;DHT22;11002;48.256;10.084;2022-09-17T12:17:17;19.00;41.60
21682;DHT22;11002;48.256;10.084;2022-09-17T12:19:50;19.00;41.60
21682;DHT22;11002;48.256;10.084;2022-09-17T12:22:22;19.00;41.60
21682;DHT22;11002;48.256;10.084;2022-09-17T12:24:51;19.00;41.60
21682;DHT22;11002;48.256;10.084;2022-09-17T12:27:28;19.00;41.60
21682;DHT22;11002;48.256;10.084;2022-09-17T12:30:10;19.00;41.70
21682;DHT22;11002;48.256;10.084;2022-09-17T12:32:57;19.00;41.70
21682;DHT22;11002;48.256;10.084;2022-09-17T12:35:43;19.00;41.60
21682;DHT22;11002;48.256;10.084;2022-09-17T12:38:24;19.10;41.80
21682;DHT22;11002;48.256;10.084;2022-09-17T12:40:56;19.00;41.70
21682;DHT22;11002;48.256;10.084;2022-09-17T12:43:44;19.00;41.70
21682;DHT22;11002;48.256;10.084;2022-09-17T12:46:37;19.00;41.70
21682;DHT22;11002;48.256;10.084;2022-09-17T12:52:00;19.00;41.70
21682;DHT22;11002;48.256;10.084;2022-09-17T12:54:46;19.10;41.80
21682;DHT22;11002;48.256;10.084;2022-09-17T12:57:26;19.00;41.70
21682;DHT22;11002;48.256;10.084;2022-09-17T13:00:03;19.00;41.70
21682;DHT22;11002;48.256;10.084;2022-09-17T13:02:35;19.00;41.70
21682;DHT22;11002;48.256;10.084;2022-09-17T13:05:38;19.00;41.70
21682;DHT22;11002;48.256;10.084;2022-09-17T13:08:43;19.00;41.90
21682;DHT22;11002;48.256;10.084;2022-09-17T13:14:28;19.00;42.50
21682;DHT22;11002;48.256;10.084;2022-09-17T13:17:05;19.00;41.80
21682;DHT22;11002;48.256;10.084;2022-09-17T13:19:40;19.00;41.90
21682;DHT22;11002;48.256;10.084;2022-09-17T13:22:16;19.00;41.90
21682;DHT22;11002;48.256;10.084;2022-09-17T13:24:44;19.00;41.90
21682;DHT22;11002;48.256;10.084;2022-09-17T13:27:20;19.00;42.00
21682;DHT22;11002;48.256;10.084;2022-09-17T13:30:00;19.00;42.00
21682;DHT22;11002;48.256;10.084;2022-09-17T13:32:49;19.00;42.10
21682;DHT22;11002;48.256;10.084;2022-09-17T13:35:48;19.00;42.00
21682;DHT22;11002;48.256;10.084;2022-09-17T13:38:17;19.10;42.20
21682;DHT22;11002;48.256;10.084;2022-09-17T13:40:45;19.00;42.10
21682;DHT22;11002;48.256;10.084;2022-09-17T13:43:16;19.00;42.80
21682;DHT22;11002;48.256;10.084;2022-09-17T13:46:13;19.10;42.20
21682;DHT22;11002;48.256;10.084;2022-09-17T13:48:55;19.00;42.20
21682;DHT22;11002;48.256;10.084;2022-09-17T13:51:50;19.10;42.20
21682;DHT22;11002;48.256;10.084;2022-09-17T13:54:20;19.10;42.30
21682;DHT22;11002;48.256;10.084;2022-09-17T13:57:03;19.10;42.20
21682;DHT22;11002;48.256;10.084;2022-09-17T13:59:34;19.10;42.30
21682;DHT22;11002;48.256;10.084;2022-09-17T14:02:27;19.10;42.30
21682;DHT22;11002;48.256;10.084;2022-09-17T14:05:21;19.10;42.30
21682;DHT22;11002;48.256;10.084;2022-09-17T14:07:50;19.00;42.20
21682;DHT22;11002;48.256;10.084;2022-09-17T14:10:40;19.10;42.20
21682;DHT22;11002;48.256;10.084;2022-09-17T14:13:27;19.10;42.30
21682;DHT22;11002;48.256;10.084;2022-09-17T14:16:24;19.10;42.30
21682;DHT22;11002;48.256;10.084;2022-09-17T14:18:56;19.10;42.40
21682;DHT22;11002;48.256;10.084;2022-09-17T14:21:29;19.00;42.20
21682;DHT22;11002;48.256;10.084;2022-09-17T14:23:59;19.00;42.30
21682;DHT22;11002;48.256;10.084;2022-09-17T14:26:51;19.10;42.40
21682;DHT22;11002;48.256;10.084;2022-09-17T14:29:39;19.10;42.40
21682;DHT22;11002;48.256;10.084;2022-09-17T14:32:16;19.10;42.40
21682;DHT22;11002;48.256;10.084;2022-09-17T14:34:46;19.10;42.40
21682;DHT22;11002;48.256;10.084;2022-09-17T14:37:17;19.10;42.40
21682;DHT22;11002;48.256;10.084;2022-09-17T14:39:47;19.10;42.40
21682;DHT22;11002;48.256;10.084;2022-09-17T14:42:18;19.00;42.30
21682;DHT22;11002;48.256;10.084;2022-09-17T14:44:52;19.10;42.40
21682;DHT22;11002;48.256;10.084;2022-09-17T14:47:20;19.10;42.40
21682;DHT22;11002;48.256;10.084;2022-09-17T14:49:48;19.10;42.50
21682;DHT22;11002;48.256;10.084;2022-09-17T14:52:24;19.10;42.40
21682;DHT22;11002;48.256;10.084;2022-09-17T14:55:17;19.10;42.40
21682;DHT22;11002;48.256;10.084;2022-09-17T14:57:47;19.10;42.50
21682;DHT22;11002;48.256;10.084;2022-09-17T15:00:17;19.10;42.40
21682;DHT22;11002;48.256;10.084;2022-09-17T15:02:50;19.10;42.40
21682;DHT22;11002;48.256;10.084;2022-09-17T15:05:25;19.10;42.50
21682;DHT22;11002;48.256;10.084;2022-09-17T15:08:07;19.10;42.40
21682;DHT22;11002;48.256;10.084;2022-09-17T15:10:38;19.10;42.40
21682;DHT22;11002;48.256;10.084;2022-09-17T15:13:12;19.10;42.50
21682;DHT22;11002;48.256;10.084;2022-09-17T15:15:50;19.10;42.40
21682;DHT22;11002;48.256;10.084;2022-09-17T15:18:19;19.10;42.40
21682;DHT22;11002;48.256;10.084;2022-09-17T15:20:47;19.10;42.40
21682;DHT22;11002;48.256;10.084;2022-09-17T15:23:22;19.00;42.40
21682;DHT22;11002;48.256;10.084;2022-09-17T15:25:54;19.10;42.50
21682;DHT22;11002;48.256;10.084;2022-09-17T15:28:27;19.10;42.50
21682;DHT22;11002;48.256;10.084;2022-09-17T15:30:55;19.10;42.50
21682;DHT22;11002;48.256;10.084;2022-09-17T15:33:23;19.00;42.50
21682;DHT22;11002;48.256;10.084;2022-09-17T15:36:05;19.00;42.50
21682;DHT22;11002;48.256;10.084;2022-09-17T15:38:36;19.10;42.50
21682;DHT22;11002;48.256;10.084;2022-09-17T15:41:28;19.10;42.40
21682;DHT22;11002;48.256;10.084;2022-09-17T15:44:06;19.00;42.40
21682;DHT22;11002;48.256;10.084;2022-09-17T15:46:33;19.10;42.50
21682;DHT22;11002;48.256;10.084;2022-09-17T15:49:02;19.00;42.50
21682;DHT22;11002;48.256;10.084;2022-09-17T15:51:31;19.10;42.50
21682;DHT22;11002;48.256;10.084;2022-09-17T15:54:02;19.00;42.40
21682;DHT22;11002;48.256;10.084;2022-09-17T15:56:32;19.00;42.40
21682;DHT22;11002;48.256;10.084;2022-09-17T15:59:02;19.00;42.40
21682;DHT22;11002;48.256;10.084;2022-09-17T16:04:24;19.10;42.60
21682;DHT22;11002;48.256;10.084;2022-09-17T16:06:57;19.10;42.50
21682;DHT22;11002;48.256;10.084;2022-09-17T16:09:53;19.10;42.50